Time;durP1;ratioP1;P1;durP2;ratioP2;P2;SDS_P1;SDS_P2;PMS_P1;PMS_P2;Temp;Humidity;BMP_temperature;BMP_pressure;BME280_temperature;BME280_humidity;BME280_pressure;Samples;Min_cycle;Max_cycle;Signal;HPM_P1;HPM_P2
2021/05/28 00:01:37;;;;;;;2.80;0.50;;;13.70;99.90;;;;;;5019566;28;20297;-94
2021/05/28 00:04:08;;;;;;;1.80;0.77;;;14.10;99.90;;;;;;5030203;28;20229;-94
2021/05/28 00:06:42;;;;;;;1.67;0.57;;;13.80;99.90;;;;;;5039316;28;20251;-94
2021/05/28 00:09:12;;;;;;;5.07;0.70;;;13.50;99.90;;;;;;5025423;28;20309;-95
2021/05/28 00:11:43;;;;;;;2.63;0.70;;;13.50;99.90;;;;;;5026372;28;20205;-95
2021/05/28 00:14:14;;;;;;;1.40;0.60;;;13.50;99.90;;;;;;5021681;28;20209;-96
2021/05/28 00:16:45;;;;;;;4.17;0.83;;;13.60;99.90;;;;;;5023298;28;20632;-95
2021/05/28 00:19:16;;;;;;;3.20;0.63;;;13.60;99.90;;;;;;5024304;28;20248;-95
2021/05/28 00:21:48;;;;;;;4.23;0.90;;;13.50;99.90;;;;;;5027307;28;20226;-94
2021/05/28 00:24:19;;;;;;;3.87;1.00;;;13.30;99.90;;;;;;5026690;28;20257;-94
2021/05/28 00:26:50;;;;;;;3.87;0.77;;;13.20;99.90;;;;;;5029143;28;20272;-92
2021/05/28 00:29:21;;;;;;;4.30;0.80;;;13.30;99.90;;;;;;5021205;28;20234;-89
2021/05/28 00:31:51;;;;;;;5.80;1.27;;;13.30;99.90;;;;;;5020365;28;20637;-93
2021/05/28 00:34:22;;;;;;;5.03;0.93;;;13.30;99.90;;;;;;5017799;28;20296;-94
2021/05/28 00:36:54;;;;;;;4.93;1.00;;;13.40;99.90;;;;;;5022467;28;20194;-94
2021/05/28 00:39:25;;;;;;;1.83;0.60;;;13.20;99.90;;;;;;5022108;28;20228;-95
2021/05/28 00:41:57;;;;;;;2.93;1.03;;;13.40;99.90;;;;;;5016244;28;20237;-94
2021/05/28 00:44:30;;;;;;;3.30;0.93;;;13.30;99.90;;;;;;5018640;28;20237;-94
2021/05/28 00:47:01;;;;;;;1.60;0.90;;;13.40;99.90;;;;;;5021908;28;20296;-94
2021/05/28 00:49:33;;;;;;;4.43;0.90;;;13.30;99.90;;;;;;5024591;28;20229;-94
2021/05/28 00:52:06;;;;;;;3.87;1.07;;;13.50;99.90;;;;;;5037479;28;20206;-93
2021/05/28 00:54:36;;;;;;;3.90;0.87;;;13.60;99.90;;;;;;5037946;28;20205;-94
2021/05/28 00:57:09;;;;;;;3.40;0.73;;;13.30;99.90;;;;;;5038023;28;20202;-93
2021/05/28 00:59:39;;;;;;;2.73;0.77;;;13.30;99.90;;;;;;5036294;28;20206;-92
2021/05/28 01:02:09;;;;;;;3.73;0.93;;;13.20;99.90;;;;;;5035709;28;20225;-93
2021/05/28 01:04:40;;;;;;;3.13;0.90;;;13.40;99.90;;;;;;5028813;28;20229;-94
2021/05/28 01:07:13;;;;;;;3.80;0.80;;;13.60;99.90;;;;;;5011434;28;20618;-94
2021/05/28 01:09:44;;;;;;;3.73;1.00;;;13.80;99.90;;;;;;5011220;28;20212;-94
2021/05/28 01:12:14;;;;;;;2.37;0.73;;;13.80;99.90;;;;;;5006166;28;20667;-94
2021/05/28 01:14:45;;;;;;;5.87;0.83;;;13.60;99.90;;;;;;4997946;28;20210;-93
2021/05/28 01:17:15;;;;;;;4.20;0.90;;;13.50;99.90;;;;;;4997033;28;20285;-94
2021/05/28 01:19:46;;;;;;;3.57;1.07;;;13.40;99.90;;;;;;5004504;28;20268;-94
2021/05/28 01:22:19;;;;;;;2.73;0.90;;;13.30;99.90;;;;;;5018277;28;20927;-95
2021/05/28 01:24:51;;;;;;;2.47;1.00;;;13.30;99.90;;;;;;5017983;28;20289;-95
2021/05/28 01:27:22;;;;;;;3.73;0.83;;;13.30;99.90;;;;;;5019240;28;20595;-96
2021/05/28 01:29:53;;;;;;;3.80;0.97;;;13.30;99.90;;;;;;5018951;28;20274;-95
2021/05/28 01:32:23;;;;;;;4.60;0.80;;;13.20;99.90;;;;;;5018619;28;20260;-95
2021/05/28 01:34:54;;;;;;;2.13;0.70;;;13.10;99.90;;;;;;5018689;28;20225;-96
2021/05/28 01:37:28;;;;;;;2.80;0.70;;;13.00;99.90;;;;;;5017745;28;20202;-95
2021/05/28 01:39:59;;;;;;;1.47;0.67;;;12.90;99.90;;;;;;5002385;28;20240;-95
2021/05/28 01:42:29;;;;;;;1.13;0.67;;;12.80;99.90;;;;;;5017714;28;20209;-95
2021/05/28 01:45:02;;;;;;;2.37;0.60;;;12.80;99.90;;;;;;5015905;28;20783;-96
2021/05/28 01:47:33;;;;;;;2.90;0.77;;;12.80;99.90;;;;;;5017246;28;20229;-95
2021/05/28 01:50:05;;;;;;;2.97;0.67;;;12.90;99.90;;;;;;5017154;28;20321;-96
2021/05/28 01:52:37;;;;;;;1.77;0.40;;;12.70;99.90;;;;;;5000046;28;20724;-95
2021/05/28 01:55:11;;;;;;;3.03;1.00;;;12.60;99.90;;;;;;5016297;28;20206;-95
2021/05/28 01:57:42;;;;;;;3.10;0.50;;;12.60;99.90;;;;;;5023270;28;20233;-95
2021/05/28 02:00:15;;;;;;;2.50;0.60;;;12.70;99.90;;;;;;5016778;28;20615;-93
2021/05/28 02:02:46;;;;;;;4.43;1.10;;;12.60;99.90;;;;;;5016908;28;20328;-93
2021/05/28 02:05:16;;;;;;;2.70;0.83;;;12.50;99.90;;;;;;5018999;28;20252;-94
2021/05/28 02:07:48;;;;;;;3.23;0.70;;;12.40;99.90;;;;;;5036813;28;20244;-94
2021/05/28 02:10:19;;;;;;;3.07;0.83;;;12.30;99.90;;;;;;5041329;28;20214;-94
2021/05/28 02:12:49;;;;;;;5.50;0.80;;;12.30;99.90;;;;;;5019978;28;20209;-93
2021/05/28 02:15:20;;;;;;;3.87;0.80;;;12.30;99.90;;;;;;5014029;28;20240;-96
2021/05/28 02:17:52;;;;;;;3.40;0.70;;;12.30;99.90;;;;;;4984507;28;20633;-95
2021/05/28 02:20:23;;;;;;;4.13;0.70;;;12.30;99.90;;;;;;5013025;28;20202;-94
2021/05/28 02:22:55;;;;;;;4.60;0.90;;;12.10;99.90;;;;;;5005551;28;20312;-95
2021/05/28 02:25:28;;;;;;;3.97;1.90;;;12.20;99.90;;;;;;5005917;28;20305;-95
2021/05/28 02:27:58;;;;;;;5.27;0.57;;;12.30;99.90;;;;;;5015688;28;20281;-96
2021/05/28 02:30:29;;;;;;;1.90;0.60;;;12.20;99.90;;;;;;5015321;28;20639;-95
2021/05/28 02:33:00;;;;;;;4.07;0.60;;;12.10;99.90;;;;;;5017495;28;20293;-96
2021/05/28 02:35:31;;;;;;;2.20;0.57;;;12.10;99.90;;;;;;5015660;28;20663;-95
2021/05/28 02:38:03;;;;;;;2.27;0.70;;;12.00;99.90;;;;;;5017872;28;20222;-95
2021/05/28 02:40:34;;;;;;;2.30;0.60;;;12.00;99.90;;;;;;5024046;28;20224;-94
2021/05/28 02:43:05;;;;;;;3.43;0.60;;;11.90;99.90;;;;;;5023212;28;20229;-95
2021/05/28 02:45:36;;;;;;;1.90;0.57;;;11.90;99.90;;;;;;5023321;28;20202;-95
2021/05/28 02:48:08;;;;;;;3.77;0.90;;;11.80;99.90;;;;;;5017019;28;20217;-96
2021/05/28 02:50:38;;;;;;;2.10;0.80;;;11.80;99.90;;;;;;5015300;28;20228;-95
2021/05/28 02:53:11;;;;;;;1.53;0.53;;;11.70;99.90;;;;;;5016371;28;20325;-95
2021/05/28 02:55:42;;;;;;;4.90;0.80;;;11.70;99.90;;;;;;4997670;28;20214;-96
2021/05/28 02:58:13;;;;;;;2.60;0.57;;;11.70;99.90;;;;;;5015150;28;20289;-95
2021/05/28 03:00:46;;;;;;;2.30;0.70;;;11.70;99.90;;;;;;5015485;28;20237;-95
2021/05/28 03:03:16;;;;;;;3.20;0.60;;;11.70;99.90;;;;;;5014787;28;20288;-95
2021/05/28 03:05:50;;;;;;;3.97;0.60;;;11.70;99.90;;;;;;5014251;28;20273;-94
2021/05/28 03:08:22;;;;;;;1.63;0.50;;;11.60;99.90;;;;;;5015442;28;20237;-93
2021/05/28 03:10:53;;;;;;;3.03;0.80;;;11.60;99.90;;;;;;5011308;28;20285;-95
2021/05/28 03:13:25;;;;;;;1.87;0.63;;;11.70;99.90;;;;;;4998586;28;20240;-96
2021/05/28 03:15:56;;;;;;;2.73;0.80;;;11.70;99.90;;;;;;5014344;28;20300;-95
2021/05/28 03:18:35;;;;;;;3.60;0.70;;;11.60;99.90;;;;;;5004840;28;20217;-95
2021/05/28 03:21:19;;;;;;;4.53;0.67;;;11.50;99.90;;;;;;5015323;28;20217;-95
2021/05/28 03:23:52;;;;;;;3.13;0.80;;;11.40;99.90;;;;;;5013461;28;20257;-95
2021/05/28 03:26:25;;;;;;;2.70;0.60;;;11.40;99.90;;;;;;5014845;28;20671;-96
2021/05/28 03:28:56;;;;;;;2.43;0.80;;;11.40;99.90;;;;;;5013526;28;20597;-94
2021/05/28 03:31:28;;;;;;;0.90;0.50;;;11.40;99.90;;;;;;5013111;28;20226;-94
2021/05/28 03:33:58;;;;;;;2.07;0.80;;;11.30;99.90;;;;;;5013930;28;20244;-94
2021/05/28 03:36:29;;;;;;;5.03;0.80;;;11.40;99.90;;;;;;4997896;28;20287;-94
2021/05/28 03:39:01;;;;;;;3.10;0.80;;;11.40;99.90;;;;;;5015246;28;20626;-93
2021/05/28 03:41:32;;;;;;;4.07;0.80;;;11.30;99.90;;;;;;5017265;28;20317;-94
2021/05/28 03:44:03;;;;;;;3.90;0.70;;;11.30;99.90;;;;;;5016730;28;20257;-94
2021/05/28 03:46:34;;;;;;;4.07;0.87;;;11.30;99.90;;;;;;5019167;28;20215;-94
2021/05/28 03:49:05;;;;;;;6.00;1.17;;;11.20;99.90;;;;;;5018624;28;20686;-94
2021/05/28 03:51:36;;;;;;;3.43;0.60;;;11.20;99.90;;;;;;5018831;28;20229;-94
2021/05/28 03:54:09;;;;;;;4.13;0.83;;;11.20;99.90;;;;;;5017498;28;20229;-94
2021/05/28 03:56:40;;;;;;;3.53;0.80;;;11.20;99.90;;;;;;5018354;28;20209;-94
2021/05/28 03:59:11;;;;;;;6.43;1.00;;;11.10;99.90;;;;;;5029472;28;20304;-93
2021/05/28 04:01:42;;;;;;;3.40;0.70;;;11.10;99.90;;;;;;5005729;28;20236;-94
2021/05/28 04:04:12;;;;;;;6.60;1.00;;;11.10;99.90;;;;;;5018307;28;20225;-94
2021/05/28 04:06:43;;;;;;;6.97;0.80;;;11.10;99.90;;;;;;5017928;28;20297;-93
2021/05/28 04:09:16;;;;;;;2.87;0.80;;;11.10;99.90;;;;;;5018752;28;20696;-94
2021/05/28 04:11:47;;;;;;;3.03;0.90;;;11.10;99.90;;;;;;5018623;28;20590;-93
2021/05/28 04:14:18;;;;;;;5.33;0.80;;;11.10;99.90;;;;;;5018089;28;20206;-93
2021/05/28 04:16:49;;;;;;;3.20;0.80;;;11.10;99.90;;;;;;5019022;28;20759;-95
2021/05/28 04:19:20;;;;;;;3.93;0.90;;;11.00;99.90;;;;;;5019935;28;20238;-95
2021/05/28 04:21:51;;;;;;;3.30;0.80;;;11.00;99.90;;;;;;5019590;28;20783;-95
2021/05/28 04:24:23;;;;;;;2.93;0.77;;;10.90;99.90;;;;;;5027005;28;20241;-95
2021/05/28 04:26:53;;;;;;;4.27;1.10;;;10.90;99.90;;;;;;5040306;28;20227;-94
2021/05/28 04:29:24;;;;;;;4.60;1.00;;;10.90;99.90;;;;;;5039072;28;20217;-95
2021/05/28 04:31:55;;;;;;;4.10;1.03;;;10.90;99.90;;;;;;5016648;28;20255;-94
2021/05/28 04:34:26;;;;;;;2.50;0.70;;;10.90;99.90;;;;;;4994563;28;20708;-95
2021/05/28 04:36:57;;;;;;;2.93;0.87;;;10.90;99.90;;;;;;5019198;28;20296;-94
2021/05/28 04:39:30;;;;;;;3.03;0.90;;;10.90;99.90;;;;;;5002181;28;20255;-95
2021/05/28 04:42:01;;;;;;;2.67;0.70;;;10.80;99.90;;;;;;5001745;28;20233;-94
2021/05/28 04:44:31;;;;;;;3.40;0.90;;;10.90;99.90;;;;;;5016479;28;20256;-95
2021/05/28 04:47:02;;;;;;;3.77;1.20;;;10.80;99.90;;;;;;5026137;28;20304;-94
2021/05/28 04:49:33;;;;;;;2.97;0.83;;;10.80;99.90;;;;;;5017998;28;20209;-94
2021/05/28 04:52:04;;;;;;;4.03;1.10;;;10.80;99.90;;;;;;5017416;28;20237;-93
2021/05/28 04:54:37;;;;;;;2.67;0.70;;;10.80;99.90;;;;;;5017023;28;20260;-94
2021/05/28 04:57:08;;;;;;;2.50;0.90;;;10.80;99.90;;;;;;5016685;28;20237;-94
2021/05/28 04:59:38;;;;;;;2.00;0.70;;;10.80;99.90;;;;;;5016763;28;20667;-94
2021/05/28 05:02:09;;;;;;;4.33;0.90;;;10.70;99.90;;;;;;5018033;28;20239;-96
2021/05/28 05:04:40;;;;;;;5.23;0.90;;;10.70;99.90;;;;;;5016336;28;20323;-96
2021/05/28 05:07:11;;;;;;;3.13;0.70;;;10.70;99.90;;;;;;5017407;28;20340;-96
2021/05/28 05:09:42;;;;;;;2.87;0.77;;;10.80;99.90;;;;;;5017333;28;20300;-96
2021/05/28 05:12:14;;;;;;;3.40;0.80;;;10.70;99.90;;;;;;5017218;28;20247;-96
2021/05/28 05:14:45;;;;;;;5.80;1.13;;;10.70;99.90;;;;;;4983915;28;20348;-96
2021/05/28 05:17:16;;;;;;;6.70;0.90;;;10.70;99.90;;;;;;5000276;28;20290;-96
2021/05/28 05:19:46;;;;;;;1.87;0.60;;;10.70;99.90;;;;;;5000217;28;20233;-95
2021/05/28 05:22:17;;;;;;;5.40;1.10;;;10.70;99.90;;;;;;5017228;28;20690;-96
2021/05/28 05:24:50;;;;;;;1.67;0.67;;;10.70;99.90;;;;;;5016034;28;20312;-96
2021/05/28 05:27:21;;;;;;;2.97;0.80;;;10.70;99.90;;;;;;5016408;28;20632;-96
2021/05/28 05:29:53;;;;;;;1.97;0.77;;;10.60;99.90;;;;;;5017057;28;20276;-95
2021/05/28 05:32:24;;;;;;;2.83;1.17;;;10.70;99.90;;;;;;5017831;28;20752;-94
2021/05/28 05:34:56;;;;;;;3.67;0.90;;;10.70;99.90;;;;;;5016179;28;20292;-95
2021/05/28 05:37:29;;;;;;;4.17;1.13;;;10.60;99.90;;;;;;5017666;28;20221;-94
2021/05/28 05:40:01;;;;;;;4.27;0.80;;;10.70;99.90;;;;;;5017126;28;20229;-95
2021/05/28 05:42:32;;;;;;;5.63;0.90;;;10.70;99.90;;;;;;5017626;28;20260;-95
2021/05/28 05:45:05;;;;;;;6.57;1.33;;;10.70;99.90;;;;;;5016854;28;20257;-94
2021/05/28 05:47:35;;;;;;;3.83;1.13;;;10.70;99.90;;;;;;5017102;28;20251;-95
2021/05/28 05:50:08;;;;;;;5.90;1.00;;;10.60;99.90;;;;;;5000821;28;20268;-95
2021/05/28 05:52:39;;;;;;;3.33;0.90;;;10.70;99.90;;;;;;5018147;28;20308;-94
2021/05/28 05:55:13;;;;;;;4.57;1.13;;;10.60;99.90;;;;;;5021552;28;20209;-95
2021/05/28 05:57:46;;;;;;;4.00;0.97;;;10.60;99.90;;;;;;5026826;28;20229;-93
2021/05/28 06:00:18;;;;;;;5.00;1.30;;;10.60;99.90;;;;;;5019759;28;20217;-95
2021/05/28 06:02:49;;;;;;;6.77;1.20;;;10.70;99.90;;;;;;5036505;28;20185;-94
2021/05/28 06:05:20;;;;;;;3.87;1.00;;;10.70;99.90;;;;;;5037431;28;20309;-94
2021/05/28 06:07:53;;;;;;;4.10;1.10;;;10.70;99.90;;;;;;5038069;28;20193;-95
2021/05/28 06:10:27;;;;;;;4.67;1.00;;;10.70;99.90;;;;;;5037861;28;20217;-95
2021/05/28 06:13:04;;;;;;;2.67;0.80;;;10.60;99.90;;;;;;5021597;28;20247;-96
2021/05/28 06:15:36;;;;;;;4.23;1.07;;;10.70;99.90;;;;;;5018380;28;20281;-95
2021/05/28 06:18:08;;;;;;;3.97;0.83;;;10.60;99.90;;;;;;5018651;28;20209;-96
2021/05/28 06:20:39;;;;;;;4.53;1.00;;;10.60;99.90;;;;;;5017742;28;20288;-95
2021/05/28 06:23:11;;;;;;;3.03;0.97;;;10.70;99.90;;;;;;5017215;28;20210;-95
2021/05/28 06:25:46;;;;;;;4.27;0.97;;;10.70;99.90;;;;;;5016740;28;20633;-94
2021/05/28 06:28:17;;;;;;;2.20;0.97;;;10.70;99.90;;;;;;5017130;28;20237;-96
2021/05/28 06:30:49;;;;;;;3.67;1.00;;;10.60;99.90;;;;;;5016928;28;20574;-96
2021/05/28 06:33:20;;;;;;;3.67;0.80;;;10.60;99.90;;;;;;5000007;28;20292;-94
2021/05/28 06:35:51;;;;;;;2.97;0.90;;;10.70;99.90;;;;;;5017831;28;20213;-95
2021/05/28 06:38:22;;;;;;;4.33;0.80;;;10.70;99.90;;;;;;5020621;28;20238;-96
2021/05/28 06:40:54;;;;;;;5.37;1.07;;;10.70;99.90;;;;;;5032094;28;20221;-95
2021/05/28 06:43:25;;;;;;;5.17;0.90;;;10.70;99.90;;;;;;5037029;28;20198;-95
2021/05/28 06:45:56;;;;;;;3.33;0.97;;;10.60;99.90;;;;;;5036717;28;20205;-94
2021/05/28 06:48:27;;;;;;;4.20;0.70;;;10.60;99.90;;;;;;5036192;28;20239;-91
2021/05/28 06:50:58;;;;;;;5.17;1.07;;;10.60;99.90;;;;;;5026716;28;20232;-92
2021/05/28 06:53:30;;;;;;;5.00;1.30;;;10.60;99.90;;;;;;5009325;28;20209;-96
2021/05/28 06:56:02;;;;;;;2.60;1.00;;;10.60;99.90;;;;;;5018417;28;20288;-95
2021/05/28 06:58:33;;;;;;;3.07;0.80;;;10.50;99.90;;;;;;5018061;28;20220;-96
2021/05/28 07:01:05;;;;;;;3.60;0.80;;;10.50;99.90;;;;;;5017426;28;20216;-95
2021/05/28 07:03:35;;;;;;;5.77;1.00;;;10.50;99.90;;;;;;5017111;28;20293;-95
2021/05/28 07:06:07;;;;;;;3.83;0.83;;;10.50;99.90;;;;;;5017689;28;20261;-96
2021/05/28 07:08:38;;;;;;;7.33;1.00;;;10.50;99.90;;;;;;5017417;28;20212;-95
2021/05/28 07:11:10;;;;;;;2.07;0.70;;;10.50;99.90;;;;;;5016421;28;20237;-96
2021/05/28 07:13:41;;;;;;;5.43;0.90;;;10.50;99.90;;;;;;5017123;28;20214;-96
2021/05/28 07:16:12;;;;;;;2.43;0.70;;;10.40;99.90;;;;;;5017120;28;20236;-95
2021/05/28 07:18:44;;;;;;;3.20;1.03;;;10.40;99.90;;;;;;5021550;28;20252;-94
2021/05/28 07:21:15;;;;;;;6.00;1.00;;;10.40;99.90;;;;;;5007948;28;20300;-95
2021/05/28 07:23:46;;;;;;;5.37;1.27;;;10.50;99.90;;;;;;5023981;28;20687;-96
2021/05/28 07:26:18;;;;;;;3.13;0.93;;;10.40;99.90;;;;;;5022599;28;20260;-95
2021/05/28 07:28:49;;;;;;;2.40;0.70;;;10.40;99.90;;;;;;5017584;28;20261;-95
2021/05/28 07:31:20;;;;;;;4.47;1.00;;;10.40;99.90;;;;;;5015576;28;20254;-95
2021/05/28 07:33:51;;;;;;;5.00;0.87;;;10.40;99.90;;;;;;5016030;28;20240;-94
2021/05/28 07:36:23;;;;;;;4.90;0.80;;;10.40;99.90;;;;;;5016080;28;20292;-95
2021/05/28 07:38:54;;;;;;;3.07;0.93;;;10.40;99.90;;;;;;5016039;28;20216;-95
2021/05/28 07:41:27;;;;;;;2.00;0.67;;;10.40;99.90;;;;;;5015955;28;20292;-95
2021/05/28 07:44:01;;;;;;;6.07;0.93;;;10.40;99.90;;;;;;5015013;28;20205;-94
2021/05/28 07:46:32;;;;;;;6.30;1.17;;;10.40;99.90;;;;;;5015525;28;20299;-95
2021/05/28 07:49:03;;;;;;;3.27;0.67;;;10.40;99.90;;;;;;5015960;28;20238;-94
2021/05/28 07:51:34;;;;;;;5.53;0.90;;;10.30;99.90;;;;;;4998439;28;20281;-95
2021/05/28 07:54:05;;;;;;;3.60;1.00;;;10.40;99.90;;;;;;5015153;28;20239;-96
2021/05/28 07:56:38;;;;;;;3.03;0.80;;;10.30;99.90;;;;;;5014831;28;20292;-94
2021/05/28 07:59:09;;;;;;;4.57;0.83;;;10.30;99.90;;;;;;5016214;28;20216;-94
2021/05/28 08:01:40;;;;;;;5.23;1.17;;;10.30;99.90;;;;;;5015273;28;20224;-96
2021/05/28 08:04:11;;;;;;;5.73;1.23;;;10.30;99.90;;;;;;4998445;28;20213;-95
2021/05/28 08:06:41;;;;;;;3.37;0.90;;;10.30;99.90;;;;;;5015613;28;20263;-95
2021/05/28 08:09:12;;;;;;;3.43;0.90;;;10.30;99.90;;;;;;4998237;28;20238;-95
2021/05/28 08:11:44;;;;;;;6.23;1.27;;;10.20;99.90;;;;;;5015717;28;20238;-93
2021/05/28 08:14:16;;;;;;;2.10;0.77;;;10.30;99.90;;;;;;5015212;28;20209;-96
2021/05/28 08:16:48;;;;;;;3.93;1.00;;;10.30;99.90;;;;;;5015993;28;20232;-95
2021/05/28 08:19:21;;;;;;;2.63;0.77;;;10.30;99.90;;;;;;5016236;28;20216;-95
2021/05/28 08:21:52;;;;;;;3.50;0.73;;;10.30;99.90;;;;;;5016812;28;20625;-96
2021/05/28 08:24:24;;;;;;;4.73;1.07;;;10.30;99.90;;;;;;5015896;28;20220;-96
2021/05/28 08:26:57;;;;;;;3.33;0.80;;;10.30;99.90;;;;;;5007187;28;20233;-95
2021/05/28 08:29:27;;;;;;;5.63;0.80;;;10.30;99.90;;;;;;5011523;28;20220;-96
2021/05/28 08:31:58;;;;;;;3.33;0.93;;;10.30;99.90;;;;;;5029666;28;20209;-96
2021/05/28 08:34:29;;;;;;;4.57;1.10;;;10.30;99.90;;;;;;5028405;28;20209;-96
2021/05/28 08:37:00;;;;;;;4.37;0.90;;;10.30;99.90;;;;;;5028524;28;20231;-96
2021/05/28 08:39:30;;;;;;;6.27;1.00;;;10.30;99.90;;;;;;5028659;28;20205;-96
2021/05/28 08:42:04;;;;;;;9.50;1.00;;;10.30;99.90;;;;;;5028751;28;20233;-96
2021/05/28 08:44:36;;;;;;;2.80;0.70;;;10.30;99.90;;;;;;5027557;28;20229;-96
2021/05/28 08:47:11;;;;;;;4.67;0.90;;;10.30;99.90;;;;;;5019907;28;20268;-96
2021/05/28 08:49:41;;;;;;;3.07;0.87;;;10.30;99.90;;;;;;5019569;28;20237;-96
2021/05/28 08:52:12;;;;;;;3.23;0.90;;;10.30;99.90;;;;;;5018996;28;20221;-96
2021/05/28 08:54:45;;;;;;;3.23;0.93;;;10.30;99.90;;;;;;5018871;28;20264;-96
2021/05/28 08:57:18;;;;;;;4.70;1.17;;;10.20;99.90;;;;;;5034669;28;20212;-96
2021/05/28 08:59:49;;;;;;;4.73;1.10;;;10.20;99.90;;;;;;5038684;28;20201;-95
2021/05/28 09:02:35;;;;;;;5.93;1.20;;;10.20;99.90;;;;;;5020526;28;20213;-96
2021/05/28 09:05:10;;;;;;;3.07;0.73;;;10.20;99.90;;;;;;5030645;28;20213;-96
2021/05/28 09:07:53;;;;;;;2.80;1.00;;;10.20;99.90;;;;;;5019606;28;20205;-96
2021/05/28 09:10:32;;;;;;;5.30;1.10;;;10.20;99.90;;;;;;5018266;28;20577;-96
2021/05/28 09:13:13;;;;;;;3.30;1.10;;;10.20;99.90;;;;;;5018280;28;20217;-94
2021/05/28 09:15:46;;;;;;;4.37;0.87;;;10.20;99.90;;;;;;5017422;28;20216;-96
2021/05/28 09:18:17;;;;;;;2.40;0.97;;;10.20;99.90;;;;;;5001118;28;20206;-95
2021/05/28 09:20:56;;;;;;;9.73;1.17;;;10.20;99.90;;;;;;5018806;28;20241;-95
2021/05/28 09:23:27;;;;;;;5.63;1.33;;;10.20;99.90;;;;;;5018192;28;20217;-94
2021/05/28 09:26:01;;;;;;;4.63;1.10;;;10.20;99.90;;;;;;5017114;28;20240;-95
2021/05/28 09:28:39;;;;;;;4.07;1.00;;;10.20;99.90;;;;;;5017702;28;20300;-96
2021/05/28 09:31:13;;;;;;;5.80;0.80;;;10.20;99.90;;;;;;5017361;28;20652;-96
2021/05/28 09:33:46;;;;;;;5.93;1.30;;;10.20;99.90;;;;;;5017372;28;20243;-96
2021/05/28 09:36:19;;;;;;;3.97;0.93;;;10.20;99.90;;;;;;5017476;28;20305;-96
2021/05/28 09:38:58;;;;;;;5.13;1.33;;;10.20;99.90;;;;;;5015824;28;20218;-95
2021/05/28 09:41:40;;;;;;;7.73;1.20;;;10.20;99.90;;;;;;5017052;28;20235;-95
2021/05/28 09:44:17;;;;;;;3.03;1.20;;;10.20;99.90;;;;;;5016109;28;20223;-95
2021/05/28 09:47:11;;;;;;;2.67;1.03;;;10.20;99.90;;;;;;5016688;28;20241;-95
2021/05/28 09:49:44;;;;;;;3.23;1.27;;;10.20;99.90;;;;;;5017436;28;20666;-95
2021/05/28 09:52:18;;;;;;;4.27;1.17;;;10.30;99.90;;;;;;5016715;28;20237;-94
2021/05/28 09:54:59;;;;;;;5.23;1.20;;;10.20;99.90;;;;;;5016345;28;20304;-95
2021/05/28 09:57:34;;;;;;;2.93;1.03;;;10.20;99.90;;;;;;5016973;28;20222;-95
2021/05/28 10:00:09;;;;;;;4.37;0.90;;;10.20;99.90;;;;;;5016150;28;20304;-95
2021/05/28 10:02:43;;;;;;;4.63;1.20;;;10.20;99.90;;;;;;5017086;28;20201;-94
2021/05/28 10:05:22;;;;;;;4.97;1.27;;;10.20;99.90;;;;;;5016490;28;20220;-95
2021/05/28 10:07:53;;;;;;;5.33;1.33;;;10.20;99.90;;;;;;5017773;28;20205;-96
2021/05/28 10:10:23;;;;;;;3.27;0.80;;;10.20;99.90;;;;;;5017179;28;20706;-95
2021/05/28 10:12:54;;;;;;;3.93;0.97;;;10.20;99.90;;;;;;5000250;28;20280;-96
2021/05/28 10:15:30;;;;;;;6.43;1.20;;;10.30;99.90;;;;;;4999715;28;20220;-95
2021/05/28 10:18:04;;;;;;;6.27;1.17;;;10.30;99.90;;;;;;5000518;28;20331;-95
2021/05/28 10:20:35;;;;;;;3.60;0.93;;;10.20;99.90;;;;;;5017536;28;20635;-95
2021/05/28 10:23:07;;;;;;;8.37;1.40;;;10.20;99.90;;;;;;5000640;28;20202;-95
2021/05/28 10:25:39;;;;;;;5.90;1.30;;;10.20;99.90;;;;;;4998937;28;20304;-95
2021/05/28 10:28:18;;;;;;;4.20;1.13;;;10.20;99.90;;;;;;5016272;28;20577;-94
2021/05/28 10:30:53;;;;;;;5.87;1.33;;;10.20;99.90;;;;;;5016321;28;20209;-95
2021/05/28 10:33:25;;;;;;;5.73;1.40;;;10.30;99.90;;;;;;5015999;28;20567;-95
2021/05/28 10:35:57;;;;;;;3.97;1.10;;;10.30;99.90;;;;;;5016411;28;20316;-95
2021/05/28 10:38:51;;;;;;;4.20;1.20;;;10.30;99.90;;;;;;5016600;28;20308;-95
2021/05/28 10:41:39;;;;;;;4.27;0.87;;;10.30;99.90;;;;;;5016198;28;21049;-94
2021/05/28 10:44:22;;;;;;;5.03;1.47;;;10.30;99.90;;;;;;5015684;28;20320;-95
2021/05/28 10:46:56;;;;;;;2.87;0.80;;;10.30;99.90;;;;;;5017609;28;20329;-95
2021/05/28 10:49:44;;;;;;;7.30;1.63;;;10.20;99.90;;;;;;4999170;28;20205;-96
2021/05/28 10:52:29;;;;;;;7.70;1.43;;;10.20;99.90;;;;;;5015999;28;20245;-94
2021/05/28 10:55:02;;;;;;;4.63;1.00;;;10.10;99.90;;;;;;5015861;28;20202;-94
2021/05/28 10:57:53;;;;;;;5.63;1.30;;;10.10;99.90;;;;;;5016143;28;20232;-94
2021/05/28 11:00:27;;;;;;;2.93;0.83;;;10.20;99.90;;;;;;5016063;28;20237;-95
2021/05/28 11:03:11;;;;;;;8.53;1.23;;;10.20;99.90;;;;;;5016782;28;20300;-94
2021/05/28 11:05:51;;;;;;;2.63;1.03;;;10.20;99.90;;;;;;5015910;28;20310;-94
2021/05/28 11:08:44;;;;;;;4.13;0.97;;;10.20;99.90;;;;;;5016939;28;20276;-94
2021/05/28 11:12:00;;;;;;;6.50;1.33;;;10.20;99.90;;;;;;5029036;28;20297;-94
2021/05/28 11:14:33;;;;;;;6.50;1.50;;;10.20;99.90;;;;;;5035957;28;20221;-95
2021/05/28 11:17:17;;;;;;;6.07;1.30;;;10.20;99.90;;;;;;5034470;28;20214;-94
2021/05/28 11:19:55;;;;;;;7.77;2.10;;;10.20;99.90;;;;;;5031183;28;20244;-95
2021/05/28 11:22:36;;;;;;;4.57;1.37;;;10.20;99.90;;;;;;5034062;28;20236;-95
2021/05/28 11:25:18;;;;;;;5.93;1.13;;;10.30;99.90;;;;;;5026058;28;20205;-95
2021/05/28 11:28:04;;;;;;;5.90;1.30;;;10.30;99.90;;;;;;5024437;28;20256;-95
2021/05/28 11:30:51;;;;;;;4.13;1.10;;;10.30;99.90;;;;;;5040279;28;20737;-95
2021/05/28 11:33:55;;;;;;;4.47;1.00;;;10.20;99.90;;;;;;5048756;28;20288;-95
2021/05/28 11:36:52;;;;;;;5.23;0.87;;;10.20;99.90;;;;;;4981994;28;20310;-94
2021/05/28 11:39:26;;;;;;;4.63;1.73;;;10.20;99.90;;;;;;5043279;28;20252;-96
2021/05/28 11:42:03;;;;;;;4.07;1.10;;;10.20;99.90;;;;;;5051077;28;20220;-95
2021/05/28 11:44:35;;;;;;;6.83;1.10;;;10.30;99.90;;;;;;5051557;28;20201;-96
2021/05/28 11:47:08;;;;;;;3.07;0.90;;;10.20;99.90;;;;;;5039949;28;20237;-95
2021/05/28 11:49:39;;;;;;;3.60;1.10;;;10.30;99.90;;;;;;5036307;28;20197;-96
2021/05/28 11:52:12;;;;;;;4.87;1.07;;;10.30;99.90;;;;;;5036662;28;20211;-96
2021/05/28 11:54:43;;;;;;;2.77;1.00;;;10.30;99.90;;;;;;5034993;28;20213;-96
2021/05/28 11:57:14;;;;;;;6.17;0.80;;;10.30;99.90;;;;;;5031737;28;20225;-96
2021/05/28 11:59:47;;;;;;;3.80;0.90;;;10.30;99.90;;;;;;5032002;28;20229;-96
2021/05/28 12:02:33;;;;;;;4.13;1.07;;;10.20;99.90;;;;;;5028080;28;20209;-96
2021/05/28 12:05:05;;;;;;;3.17;0.83;;;10.20;99.90;;;;;;5022012;28;20648;-96
2021/05/28 12:07:38;;;;;;;4.43;0.93;;;10.20;99.90;;;;;;5020982;28;20567;-96
2021/05/28 12:10:12;;;;;;;3.77;1.10;;;10.20;99.90;;;;;;5020290;28;20205;-96
2021/05/28 12:13:07;;;;;;;2.10;0.60;;;10.20;99.90;;;;;;5019836;28;20244;-96
2021/05/28 12:15:41;;;;;;;3.83;1.23;;;10.20;99.90;;;;;;5005609;28;20304;-96
2021/05/28 12:18:18;;;;;;;4.53;0.90;;;10.10;99.90;;;;;;5002493;28;20292;-96
2021/05/28 12:20:50;;;;;;;4.80;1.07;;;10.10;99.90;;;;;;5019475;28;20208;-96
2021/05/28 12:23:27;;;;;;;5.87;0.90;;;10.10;99.90;;;;;;5018677;28;20236;-96
2021/05/28 12:25:59;;;;;;;3.63;0.80;;;10.10;99.90;;;;;;5001931;28;20277;-96
2021/05/28 12:28:32;;;;;;;5.20;1.10;;;10.10;99.90;;;;;;5019031;28;20216;-96
2021/05/28 12:31:05;;;;;;;3.73;0.80;;;10.10;99.90;;;;;;5019492;28;20213;-96
2021/05/28 12:33:37;;;;;;;3.50;0.80;;;10.10;99.90;;;;;;5019447;28;20288;-96
2021/05/28 12:36:10;;;;;;;2.13;0.73;;;10.20;99.90;;;;;;5019122;28;20237;-96
2021/05/28 12:38:44;;;;;;;4.90;0.97;;;10.20;99.90;;;;;;5019229;28;20233;-96
2021/05/28 12:41:17;;;;;;;4.70;1.03;;;10.20;99.90;;;;;;5002420;28;20221;-95
2021/05/28 12:43:49;;;;;;;3.27;1.10;;;10.20;99.90;;;;;;5021304;28;20209;-96
2021/05/28 12:46:22;;;;;;;2.77;0.93;;;10.20;99.90;;;;;;5021159;28;20213;-96
2021/05/28 12:48:54;;;;;;;2.60;0.77;;;10.20;99.90;;;;;;5038099;28;20201;-96
2021/05/28 12:51:31;;;;;;;4.77;1.07;;;10.20;99.90;;;;;;5030132;28;20244;-95
2021/05/28 12:54:15;;;;;;;5.13;0.93;;;10.20;99.90;;;;;;5016271;28;20201;-96
2021/05/28 12:56:47;;;;;;;2.77;0.80;;;10.20;99.90;;;;;;5019261;28;20213;-96
2021/05/28 12:59:21;;;;;;;5.53;1.27;;;10.20;99.90;;;;;;4984984;28;20214;-96
2021/05/28 13:01:53;;;;;;;3.50;0.80;;;10.20;99.90;;;;;;5000162;28;20296;-96
2021/05/28 13:04:24;;;;;;;3.47;0.70;;;10.20;99.90;;;;;;4998581;28;20221;-96
2021/05/28 13:06:57;;;;;;;4.20;1.57;;;10.20;99.90;;;;;;4999082;28;20273;-96
2021/05/28 13:09:30;;;;;;;5.37;1.30;;;10.20;99.90;;;;;;4999223;28;20206;-95
2021/05/28 13:12:09;;;;;;;3.87;0.90;;;10.20;99.90;;;;;;4997972;28;20238;-96
2021/05/28 13:14:41;;;;;;;4.77;1.20;;;10.20;99.90;;;;;;4997888;28;20621;-95
2021/05/28 13:17:23;;;;;;;2.07;0.70;;;10.20;99.90;;;;;;4998838;28;20299;-96
2021/05/28 13:19:56;;;;;;;3.00;0.73;;;10.30;99.90;;;;;;4999129;28;20248;-95